sensor_id;sensor_type;location;lat;lon;timestamp;P1;durP1;ratioP1;P2;durP2;ratioP2
67904;SDS011;54709;43.614;1.576;2022-08-21T00:00:36;1.27;;;0.60;;
67904;SDS011;54709;43.614;1.576;2022-08-21T00:03:04;1.85;;;0.70;;
67904;SDS011;54709;43.614;1.576;2022-08-21T00:05:31;0.93;;;0.68;;
67904;SDS011;54709;43.614;1.576;2022-08-21T00:07:58;0.60;;;0.50;;
67904;SDS011;54709;43.614;1.576;2022-08-21T00:10:24;0.63;;;0.60;;
67904;SDS011;54709;43.614;1.576;2022-08-21T00:12:50;1.10;;;0.60;;
67904;SDS011;54709;43.614;1.576;2022-08-21T00:15:17;1.80;;;0.80;;
67904;SDS011;54709;43.614;1.576;2022-08-21T00:17:45;0.85;;;0.70;;
67904;SDS011;54709;43.614;1.576;2022-08-21T00:20:11;1.00;;;0.60;;
67904;SDS011;54709;43.614;1.576;2022-08-21T00:22:39;0.80;;;0.70;;
67904;SDS011;54709;43.614;1.576;2022-08-21T00:25:06;2.05;;;0.60;;
67904;SDS011;54709;43.614;1.576;2022-08-21T00:27:32;1.40;;;0.68;;
67904;SDS011;54709;43.614;1.576;2022-08-21T00:29:58;1.20;;;0.60;;
67904;SDS011;54709;43.614;1.576;2022-08-21T00:32:24;1.02;;;0.68;;
67904;SDS011;54709;43.614;1.576;2022-08-21T00:34:50;3.20;;;0.80;;
67904;SDS011;54709;43.614;1.576;2022-08-21T00:37:16;3.13;;;0.70;;
67904;SDS011;54709;43.614;1.576;2022-08-21T00:39:42;0.50;;;0.50;;
67904;SDS011;54709;43.614;1.576;2022-08-21T00:42:08;0.98;;;0.52;;
67904;SDS011;54709;43.614;1.576;2022-08-21T00:44:34;2.00;;;0.60;;
67904;SDS011;54709;43.614;1.576;2022-08-21T00:47:00;0.88;;;0.70;;
67904;SDS011;54709;43.614;1.576;2022-08-21T00:49:25;0.70;;;0.70;;
67904;SDS011;54709;43.614;1.576;2022-08-21T00:51:51;2.05;;;0.75;;
67904;SDS011;54709;43.614;1.576;2022-08-21T00:54:20;1.75;;;0.70;;
67904;SDS011;54709;43.614;1.576;2022-08-21T00:56:48;0.80;;;0.77;;
67904;SDS011;54709;43.614;1.576;2022-08-21T00:59:18;0.75;;;0.60;;
67904;SDS011;54709;43.614;1.576;2022-08-21T01:01:44;1.98;;;0.60;;
67904;SDS011;54709;43.614;1.576;2022-08-21T01:04:10;2.05;;;0.65;;
67904;SDS011;54709;43.614;1.576;2022-08-21T01:06:36;1.85;;;0.60;;
67904;SDS011;54709;43.614;1.576;2022-08-21T01:09:02;1.20;;;0.60;;
67904;SDS011;54709;43.614;1.576;2022-08-21T01:11:28;1.02;;;0.70;;
67904;SDS011;54709;43.614;1.576;2022-08-21T01:13:53;1.35;;;0.60;;
67904;SDS011;54709;43.614;1.576;2022-08-21T01:16:20;1.38;;;0.80;;
67904;SDS011;54709;43.614;1.576;2022-08-21T01:18:46;0.73;;;0.65;;
67904;SDS011;54709;43.614;1.576;2022-08-21T01:21:17;0.73;;;0.73;;
67904;SDS011;54709;43.614;1.576;2022-08-21T01:23:46;1.10;;;0.60;;
67904;SDS011;54709;43.614;1.576;2022-08-21T01:26:16;1.20;;;0.80;;
67904;SDS011;54709;43.614;1.576;2022-08-21T01:28:54;1.83;;;0.70;;
67904;SDS011;54709;43.614;1.576;2022-08-21T01:31:22;2.55;;;0.63;;
67904;SDS011;54709;43.614;1.576;2022-08-21T01:33:49;2.67;;;0.70;;
67904;SDS011;54709;43.614;1.576;2022-08-21T01:36:14;2.47;;;0.70;;
67904;SDS011;54709;43.614;1.576;2022-08-21T01:38:40;0.60;;;0.50;;
67904;SDS011;54709;43.614;1.576;2022-08-21T01:41:05;0.85;;;0.57;;
67904;SDS011;54709;43.614;1.576;2022-08-21T01:43:31;1.02;;;0.57;;
67904;SDS011;54709;43.614;1.576;2022-08-21T01:45:57;3.25;;;0.80;;
67904;SDS011;54709;43.614;1.576;2022-08-21T01:48:22;4.90;;;0.80;;
67904;SDS011;54709;43.614;1.576;2022-08-21T01:50:48;0.60;;;0.60;;
67904;SDS011;54709;43.614;1.576;2022-08-21T01:53:13;1.73;;;0.82;;
67904;SDS011;54709;43.614;1.576;2022-08-21T01:55:40;0.60;;;0.60;;
67904;SDS011;54709;43.614;1.576;2022-08-21T01:58:06;1.38;;;0.70;;
67904;SDS011;54709;43.614;1.576;2022-08-21T02:00:32;2.05;;;0.80;;
67904;SDS011;54709;43.614;1.576;2022-08-21T02:02:57;0.90;;;0.80;;
67904;SDS011;54709;43.614;1.576;2022-08-21T02:05:22;2.72;;;0.80;;
67904;SDS011;54709;43.614;1.576;2022-08-21T02:07:49;1.00;;;0.80;;
67904;SDS011;54709;43.614;1.576;2022-08-21T02:10:18;7.13;;;0.63;;
67904;SDS011;54709;43.614;1.576;2022-08-21T02:12:46;0.60;;;0.60;;
67904;SDS011;54709;43.614;1.576;2022-08-21T02:15:11;1.33;;;0.73;;
67904;SDS011;54709;43.614;1.576;2022-08-21T02:17:47;1.13;;;0.80;;
67904;SDS011;54709;43.614;1.576;2022-08-21T02:20:21;1.10;;;0.80;;
67904;SDS011;54709;43.614;1.576;2022-08-21T02:22:48;2.55;;;0.75;;
67904;SDS011;54709;43.614;1.576;2022-08-21T02:25:14;1.20;;;0.90;;
67904;SDS011;54709;43.614;1.576;2022-08-21T02:27:41;1.73;;;0.80;;
67904;SDS011;54709;43.614;1.576;2022-08-21T02:30:12;1.63;;;0.73;;
67904;SDS011;54709;43.614;1.576;2022-08-21T02:32:40;0.98;;;0.82;;
67904;SDS011;54709;43.614;1.576;2022-08-21T02:35:07;2.22;;;0.90;;
67904;SDS011;54709;43.614;1.576;2022-08-21T02:37:34;3.38;;;0.98;;
67904;SDS011;54709;43.614;1.576;2022-08-21T02:40:07;2.38;;;0.90;;
67904;SDS011;54709;43.614;1.576;2022-08-21T02:42:36;1.42;;;0.90;;
67904;SDS011;54709;43.614;1.576;2022-08-21T02:45:02;1.45;;;0.80;;
67904;SDS011;54709;43.614;1.576;2022-08-21T02:47:28;1.10;;;0.90;;
67904;SDS011;54709;43.614;1.576;2022-08-21T02:49:53;2.70;;;1.00;;
67904;SDS011;54709;43.614;1.576;2022-08-21T02:52:18;0.95;;;0.65;;
67904;SDS011;54709;43.614;1.576;2022-08-21T02:54:44;1.70;;;0.95;;
67904;SDS011;54709;43.614;1.576;2022-08-21T02:57:09;1.95;;;1.00;;
67904;SDS011;54709;43.614;1.576;2022-08-21T02:59:34;3.67;;;1.10;;
67904;SDS011;54709;43.614;1.576;2022-08-21T03:02:00;2.45;;;0.95;;
67904;SDS011;54709;43.614;1.576;2022-08-21T03:04:26;2.80;;;1.00;;
67904;SDS011;54709;43.614;1.576;2022-08-21T03:06:51;1.20;;;1.00;;
67904;SDS011;54709;43.614;1.576;2022-08-21T03:09:16;2.60;;;1.20;;
67904;SDS011;54709;43.614;1.576;2022-08-21T03:11:42;1.55;;;1.10;;
67904;SDS011;54709;43.614;1.576;2022-08-21T03:14:08;3.47;;;1.00;;
67904;SDS011;54709;43.614;1.576;2022-08-21T03:16:34;3.40;;;1.00;;
67904;SDS011;54709;43.614;1.576;2022-08-21T03:19:00;2.47;;;0.88;;
67904;SDS011;54709;43.614;1.576;2022-08-21T03:21:25;0.88;;;0.77;;
67904;SDS011;54709;43.614;1.576;2022-08-21T03:23:50;1.15;;;1.13;;
67904;SDS011;54709;43.614;1.576;2022-08-21T03:26:17;1.70;;;1.08;;
67904;SDS011;54709;43.614;1.576;2022-08-21T03:28:42;1.88;;;1.00;;
67904;SDS011;54709;43.614;1.576;2022-08-21T03:31:08;1.80;;;1.00;;
67904;SDS011;54709;43.614;1.576;2022-08-21T03:33:33;1.40;;;1.30;;
67904;SDS011;54709;43.614;1.576;2022-08-21T03:36:04;1.45;;;1.10;;
67904;SDS011;54709;43.614;1.576;2022-08-21T03:38:32;1.65;;;1.15;;
67904;SDS011;54709;43.614;1.576;2022-08-21T03:40:58;1.58;;;1.02;;
67904;SDS011;54709;43.614;1.576;2022-08-21T03:43:24;2.28;;;1.10;;
67904;SDS011;54709;43.614;1.576;2022-08-21T03:45:50;1.85;;;1.20;;
67904;SDS011;54709;43.614;1.576;2022-08-21T03:48:16;2.80;;;0.98;;
67904;SDS011;54709;43.614;1.576;2022-08-21T03:50:42;2.17;;;1.10;;
67904;SDS011;54709;43.614;1.576;2022-08-21T03:53:09;2.10;;;1.05;;
67904;SDS011;54709;43.614;1.576;2022-08-21T03:55:35;2.88;;;1.02;;
67904;SDS011;54709;43.614;1.576;2022-08-21T03:58:01;2.42;;;1.15;;
67904;SDS011;54709;43.614;1.576;2022-08-21T04:00:27;1.00;;;1.00;;
67904;SDS011;54709;43.614;1.576;2022-08-21T04:02:53;2.08;;;1.20;;
67904;SDS011;54709;43.614;1.576;2022-08-21T04:05:18;2.85;;;1.30;;
67904;SDS011;54709;43.614;1.576;2022-08-21T04:08:02;2.97;;;1.10;;
67904;SDS011;54709;43.614;1.576;2022-08-21T04:10:30;1.15;;;1.05;;
67904;SDS011;54709;43.614;1.576;2022-08-21T04:12:56;1.30;;;1.00;;
67904;SDS011;54709;43.614;1.576;2022-08-21T04:15:23;1.85;;;1.15;;
67904;SDS011;54709;43.614;1.576;2022-08-21T04:17:49;2.65;;;1.00;;
67904;SDS011;54709;43.614;1.576;2022-08-21T04:20:18;1.48;;;1.00;;
67904;SDS011;54709;43.614;1.576;2022-08-21T04:22:44;2.38;;;1.20;;
67904;SDS011;54709;43.614;1.576;2022-08-21T04:25:11;2.05;;;1.10;;
67904;SDS011;54709;43.614;1.576;2022-08-21T04:27:37;2.15;;;0.98;;
67904;SDS011;54709;43.614;1.576;2022-08-21T04:30:05;2.75;;;1.30;;
67904;SDS011;54709;43.614;1.576;2022-08-21T04:32:31;2.58;;;1.23;;
67904;SDS011;54709;43.614;1.576;2022-08-21T04:35:08;2.67;;;1.25;;
67904;SDS011;54709;43.614;1.576;2022-08-21T04:37:35;1.63;;;1.13;;
67904;SDS011;54709;43.614;1.576;2022-08-21T04:40:01;1.45;;;1.10;;
67904;SDS011;54709;43.614;1.576;2022-08-21T04:42:27;2.22;;;1.20;;
67904;SDS011;54709;43.614;1.576;2022-08-21T04:44:53;1.42;;;1.10;;
67904;SDS011;54709;43.614;1.576;2022-08-21T04:47:20;1.67;;;1.00;;
67904;SDS011;54709;43.614;1.576;2022-08-21T04:49:46;2.53;;;1.05;;
67904;SDS011;54709;43.614;1.576;2022-08-21T04:52:11;2.55;;;1.08;;
67904;SDS011;54709;43.614;1.576;2022-08-21T04:54:38;4.00;;;1.20;;
67904;SDS011;54709;43.614;1.576;2022-08-21T04:57:05;1.58;;;0.90;;
67904;SDS011;54709;43.614;1.576;2022-08-21T04:59:36;2.30;;;1.30;;
67904;SDS011;54709;43.614;1.576;2022-08-21T05:02:06;2.20;;;1.40;;
67904;SDS011;54709;43.614;1.576;2022-08-21T05:04:34;1.98;;;1.27;;
67904;SDS011;54709;43.614;1.576;2022-08-21T05:09:42;2.55;;;1.35;;
67904;SDS011;54709;43.614;1.576;2022-08-21T05:12:08;2.90;;;1.17;;
67904;SDS011;54709;43.614;1.576;2022-08-21T05:14:34;3.63;;;1.23;;
67904;SDS011;54709;43.614;1.576;2022-08-21T05:17:00;2.00;;;1.10;;
67904;SDS011;54709;43.614;1.576;2022-08-21T05:19:25;1.70;;;1.25;;
67904;SDS011;54709;43.614;1.576;2022-08-21T05:21:52;2.10;;;1.40;;
67904;SDS011;54709;43.614;1.576;2022-08-21T05:24:17;2.13;;;1.20;;
67904;SDS011;54709;43.614;1.576;2022-08-21T05:26:43;1.60;;;1.45;;
67904;SDS011;54709;43.614;1.576;2022-08-21T05:29:09;4.90;;;1.38;;
67904;SDS011;54709;43.614;1.576;2022-08-21T05:31:35;2.42;;;1.15;;
67904;SDS011;54709;43.614;1.576;2022-08-21T05:34:01;1.98;;;1.40;;
67904;SDS011;54709;43.614;1.576;2022-08-21T05:36:27;2.17;;;1.30;;
67904;SDS011;54709;43.614;1.576;2022-08-21T05:38:52;3.15;;;1.20;;
67904;SDS011;54709;43.614;1.576;2022-08-21T05:41:17;1.80;;;1.30;;
67904;SDS011;54709;43.614;1.576;2022-08-21T05:43:43;1.73;;;1.27;;
67904;SDS011;54709;43.614;1.576;2022-08-21T05:46:08;2.35;;;1.00;;
67904;SDS011;54709;43.614;1.576;2022-08-21T05:48:34;4.03;;;1.23;;
67904;SDS011;54709;43.614;1.576;2022-08-21T05:51:04;3.42;;;1.10;;
67904;SDS011;54709;43.614;1.576;2022-08-21T05:53:31;2.72;;;1.20;;
67904;SDS011;54709;43.614;1.576;2022-08-21T05:55:56;2.97;;;1.20;;
67904;SDS011;54709;43.614;1.576;2022-08-21T05:58:22;1.75;;;1.27;;
67904;SDS011;54709;43.614;1.576;2022-08-21T06:00:51;2.10;;;1.33;;
67904;SDS011;54709;43.614;1.576;2022-08-21T06:03:18;3.00;;;1.30;;
67904;SDS011;54709;43.614;1.576;2022-08-21T06:05:48;1.67;;;1.20;;
67904;SDS011;54709;43.614;1.576;2022-08-21T06:08:14;1.95;;;1.10;;
67904;SDS011;54709;43.614;1.576;2022-08-21T06:10:41;2.05;;;1.17;;
67904;SDS011;54709;43.614;1.576;2022-08-21T06:13:07;3.00;;;1.10;;
67904;SDS011;54709;43.614;1.576;2022-08-21T06:15:33;2.65;;;1.10;;
67904;SDS011;54709;43.614;1.576;2022-08-21T06:17:58;1.17;;;1.08;;
67904;SDS011;54709;43.614;1.576;2022-08-21T06:20:24;2.17;;;1.42;;
67904;SDS011;54709;43.614;1.576;2022-08-21T06:22:50;3.72;;;1.20;;
67904;SDS011;54709;43.614;1.576;2022-08-21T06:25:15;1.17;;;1.08;;
67904;SDS011;54709;43.614;1.576;2022-08-21T06:27:41;1.73;;;1.20;;
67904;SDS011;54709;43.614;1.576;2022-08-21T06:30:06;1.23;;;1.13;;
67904;SDS011;54709;43.614;1.576;2022-08-21T06:32:32;1.92;;;1.17;;
67904;SDS011;54709;43.614;1.576;2022-08-21T06:34:58;1.40;;;1.30;;
67904;SDS011;54709;43.614;1.576;2022-08-21T06:37:23;2.40;;;1.20;;
67904;SDS011;54709;43.614;1.576;2022-08-21T06:39:48;1.40;;;0.98;;
67904;SDS011;54709;43.614;1.576;2022-08-21T06:42:15;4.18;;;1.40;;
67904;SDS011;54709;43.614;1.576;2022-08-21T06:44:41;1.35;;;1.10;;
67904;SDS011;54709;43.614;1.576;2022-08-21T06:47:07;2.75;;;1.00;;
67904;SDS011;54709;43.614;1.576;2022-08-21T06:49:33;1.45;;;1.00;;
67904;SDS011;54709;43.614;1.576;2022-08-21T06:51:58;1.10;;;0.93;;
67904;SDS011;54709;43.614;1.576;2022-08-21T06:54:24;1.25;;;0.90;;
67904;SDS011;54709;43.614;1.576;2022-08-21T06:56:49;1.05;;;0.88;;
67904;SDS011;54709;43.614;1.576;2022-08-21T06:59:14;1.48;;;1.00;;
67904;SDS011;54709;43.614;1.576;2022-08-21T07:01:40;1.98;;;0.90;;
67904;SDS011;54709;43.614;1.576;2022-08-21T07:04:06;1.40;;;1.00;;
67904;SDS011;54709;43.614;1.576;2022-08-21T07:06:31;2.35;;;1.10;;
67904;SDS011;54709;43.614;1.576;2022-08-21T07:08:57;3.17;;;1.00;;
67904;SDS011;54709;43.614;1.576;2022-08-21T07:11:22;1.33;;;0.95;;
67904;SDS011;54709;43.614;1.576;2022-08-21T07:13:49;3.50;;;1.10;;
67904;SDS011;54709;43.614;1.576;2022-08-21T07:16:16;3.03;;;1.00;;
67904;SDS011;54709;43.614;1.576;2022-08-21T07:18:42;1.27;;;1.10;;
67904;SDS011;54709;43.614;1.576;2022-08-21T07:21:07;1.42;;;1.10;;
67904;SDS011;54709;43.614;1.576;2022-08-21T07:23:34;5.22;;;0.98;;
67904;SDS011;54709;43.614;1.576;2022-08-21T07:26:03;3.10;;;0.98;;
67904;SDS011;54709;43.614;1.576;2022-08-21T07:28:28;0.95;;;0.80;;
67904;SDS011;54709;43.614;1.576;2022-08-21T07:30:55;1.35;;;0.90;;
67904;SDS011;54709;43.614;1.576;2022-08-21T07:33:22;2.35;;;1.00;;
67904;SDS011;54709;43.614;1.576;2022-08-21T07:35:48;0.82;;;0.80;;
67904;SDS011;54709;43.614;1.576;2022-08-21T07:38:13;0.95;;;0.80;;
67904;SDS011;54709;43.614;1.576;2022-08-21T07:40:39;1.30;;;0.90;;
67904;SDS011;54709;43.614;1.576;2022-08-21T07:43:04;1.20;;;0.80;;
67904;SDS011;54709;43.614;1.576;2022-08-21T07:45:30;1.27;;;0.75;;
67904;SDS011;54709;43.614;1.576;2022-08-21T07:47:55;0.90;;;0.80;;
67904;SDS011;54709;43.614;1.576;2022-08-21T07:50:21;1.75;;;0.85;;
67904;SDS011;54709;43.614;1.576;2022-08-21T07:52:47;0.80;;;0.80;;
67904;SDS011;54709;43.614;1.576;2022-08-21T07:55:13;0.80;;;0.80;;
67904;SDS011;54709;43.614;1.576;2022-08-21T07:57:40;0.75;;;0.75;;
67904;SDS011;54709;43.614;1.576;2022-08-21T08:00:07;1.52;;;0.88;;
67904;SDS011;54709;43.614;1.576;2022-08-21T08:02:35;1.10;;;0.70;;
67904;SDS011;54709;43.614;1.576;2022-08-21T08:05:01;0.80;;;0.80;;
67904;SDS011;54709;43.614;1.576;2022-08-21T08:07:31;0.90;;;0.80;;
67904;SDS011;54709;43.614;1.576;2022-08-21T08:09:56;0.80;;;0.70;;
67904;SDS011;54709;43.614;1.576;2022-08-21T08:12:23;0.68;;;0.68;;
67904;SDS011;54709;43.614;1.576;2022-08-21T08:14:54;1.00;;;0.70;;
67904;SDS011;54709;43.614;1.576;2022-08-21T08:17:22;1.02;;;0.60;;
67904;SDS011;54709;43.614;1.576;2022-08-21T08:19:48;1.35;;;0.80;;
67904;SDS011;54709;43.614;1.576;2022-08-21T08:22:18;2.58;;;0.70;;
67904;SDS011;54709;43.614;1.576;2022-08-21T08:24:46;1.20;;;0.80;;
67904;SDS011;54709;43.614;1.576;2022-08-21T08:27:12;1.55;;;0.70;;
67904;SDS011;54709;43.614;1.576;2022-08-21T08:29:37;0.82;;;0.80;;
67904;SDS011;54709;43.614;1.576;2022-08-21T08:32:04;3.35;;;0.70;;
67904;SDS011;54709;43.614;1.576;2022-08-21T08:34:32;0.93;;;0.70;;
67904;SDS011;54709;43.614;1.576;2022-08-21T08:36:57;3.15;;;0.60;;
67904;SDS011;54709;43.614;1.576;2022-08-21T08:39:23;0.63;;;0.60;;
67904;SDS011;54709;43.614;1.576;2022-08-21T08:41:49;3.42;;;0.80;;
67904;SDS011;54709;43.614;1.576;2022-08-21T08:44:44;0.93;;;0.63;;
67904;SDS011;54709;43.614;1.576;2022-08-21T08:47:14;1.80;;;0.80;;
67904;SDS011;54709;43.614;1.576;2022-08-21T08:49:59;0.88;;;0.60;;
67904;SDS011;54709;43.614;1.576;2022-08-21T08:55:06;0.60;;;0.60;;
67904;SDS011;54709;43.614;1.576;2022-08-21T08:57:35;1.38;;;0.70;;
67904;SDS011;54709;43.614;1.576;2022-08-21T09:00:04;1.15;;;0.60;;
67904;SDS011;54709;43.614;1.576;2022-08-21T09:02:37;2.00;;;0.55;;
67904;SDS011;54709;43.614;1.576;2022-08-21T09:05:04;0.93;;;0.55;;
67904;SDS011;54709;43.614;1.576;2022-08-21T09:07:44;1.92;;;0.60;;
67904;SDS011;54709;43.614;1.576;2022-08-21T09:10:18;3.00;;;0.50;;
67904;SDS011;54709;43.614;1.576;2022-08-21T09:13:13;1.40;;;0.52;;
67904;SDS011;54709;43.614;1.576;2022-08-21T09:18:34;0.77;;;0.50;;
67904;SDS011;54709;43.614;1.576;2022-08-21T09:21:09;1.05;;;0.38;;
67904;SDS011;54709;43.614;1.576;2022-08-21T09:23:42;1.60;;;0.40;;
67904;SDS011;54709;43.614;1.576;2022-08-21T09:26:25;1.35;;;0.60;;
67904;SDS011;54709;43.614;1.576;2022-08-21T09:28:54;1.60;;;0.43;;
67904;SDS011;54709;43.614;1.576;2022-08-21T09:31:24;1.17;;;0.47;;
67904;SDS011;54709;43.614;1.576;2022-08-21T09:34:03;1.33;;;0.50;;
67904;SDS011;54709;43.614;1.576;2022-08-21T09:36:37;1.48;;;0.50;;
67904;SDS011;54709;43.614;1.576;2022-08-21T09:39:04;0.95;;;0.55;;
67904;SDS011;54709;43.614;1.576;2022-08-21T09:41:31;0.90;;;0.50;;
67904;SDS011;54709;43.614;1.576;2022-08-21T09:44:00;1.65;;;0.50;;
67904;SDS011;54709;43.614;1.576;2022-08-21T09:46:26;2.05;;;0.40;;
67904;SDS011;54709;43.614;1.576;2022-08-21T09:48:57;1.58;;;0.50;;
67904;SDS011;54709;43.614;1.576;2022-08-21T10:01:50;0.50;;;0.38;;
67904;SDS011;54709;43.614;1.576;2022-08-21T10:04:19;0.40;;;0.40;;
67904;SDS011;54709;43.614;1.576;2022-08-21T10:07:06;2.50;;;0.30;;
67904;SDS011;54709;43.614;1.576;2022-08-21T10:09:35;0.40;;;0.40;;
67904;SDS011;54709;43.614;1.576;2022-08-21T10:12:22;0.88;;;0.40;;
67904;SDS011;54709;43.614;1.576;2022-08-21T10:17:54;1.13;;;0.35;;
67904;SDS011;54709;43.614;1.576;2022-08-21T10:20:27;0.75;;;0.32;;
67904;SDS011;54709;43.614;1.576;2022-08-21T10:25:38;0.30;;;0.30;;
67904;SDS011;54709;43.614;1.576;2022-08-21T10:28:30;2.38;;;0.50;;
67904;SDS011;54709;43.614;1.576;2022-08-21T10:31:45;0.40;;;0.40;;
67904;SDS011;54709;43.614;1.576;2022-08-21T10:34:22;1.75;;;0.40;;
67904;SDS011;54709;43.614;1.576;2022-08-21T10:36:58;0.90;;;0.32;;
67904;SDS011;54709;43.614;1.576;2022-08-21T10:39:34;0.35;;;0.25;;
67904;SDS011;54709;43.614;1.576;2022-08-21T10:42:27;0.35;;;0.32;;
67904;SDS011;54709;43.614;1.576;2022-08-21T10:47:40;0.57;;;0.20;;
67904;SDS011;54709;43.614;1.576;2022-08-21T10:50:30;0.70;;;0.40;;
67904;SDS011;54709;43.614;1.576;2022-08-21T10:53:19;0.52;;;0.30;;
67904;SDS011;54709;43.614;1.576;2022-08-21T10:55:59;2.67;;;0.50;;
67904;SDS011;54709;43.614;1.576;2022-08-21T10:58:40;0.73;;;0.20;;
67904;SDS011;54709;43.614;1.576;2022-08-21T11:01:13;0.60;;;0.30;;
67904;SDS011;54709;43.614;1.576;2022-08-21T11:03:53;0.60;;;0.50;;
67904;SDS011;54709;43.614;1.576;2022-08-21T11:06:27;0.40;;;0.30;;
67904;SDS011;54709;43.614;1.576;2022-08-21T11:08:58;0.65;;;0.30;;
67904;SDS011;54709;43.614;1.576;2022-08-21T11:11:57;0.88;;;0.30;;
67904;SDS011;54709;43.614;1.576;2022-08-21T11:14:36;0.75;;;0.40;;
67904;SDS011;54709;43.614;1.576;2022-08-21T11:17:10;0.45;;;0.45;;
67904;SDS011;54709;43.614;1.576;2022-08-21T11:24:39;1.05;;;0.30;;
67904;SDS011;54709;43.614;1.576;2022-08-21T11:29:55;1.80;;;0.60;;
67904;SDS011;54709;43.614;1.576;2022-08-21T11:38:27;0.50;;;0.32;;
67904;SDS011;54709;43.614;1.576;2022-08-21T11:41:08;0.70;;;0.60;;
67904;SDS011;54709;43.614;1.576;2022-08-21T11:43:39;0.80;;;0.60;;
67904;SDS011;54709;43.614;1.576;2022-08-21T11:51:45;1.48;;;0.47;;
67904;SDS011;54709;43.614;1.576;2022-08-21T11:54:56;0.90;;;0.45;;
67904;SDS011;54709;43.614;1.576;2022-08-21T11:59:45;0.55;;;0.47;;
67904;SDS011;54709;43.614;1.576;2022-08-21T12:02:16;2.20;;;0.60;;
67904;SDS011;54709;43.614;1.576;2022-08-21T12:04:49;1.65;;;0.50;;
67904;SDS011;54709;43.614;1.576;2022-08-21T12:07:33;1.67;;;0.47;;
67904;SDS011;54709;43.614;1.576;2022-08-21T12:10:05;1.60;;;0.47;;
67904;SDS011;54709;43.614;1.576;2022-08-21T12:12:34;1.50;;;0.50;;
67904;SDS011;54709;43.614;1.576;2022-08-21T12:17:39;1.00;;;0.52;;
67904;SDS011;54709;43.614;1.576;2022-08-21T12:20:23;1.20;;;0.50;;
67904;SDS011;54709;43.614;1.576;2022-08-21T12:22:53;1.65;;;0.40;;
67904;SDS011;54709;43.614;1.576;2022-08-21T12:25:20;0.57;;;0.50;;
67904;SDS011;54709;43.614;1.576;2022-08-21T12:27:49;1.65;;;0.50;;
67904;SDS011;54709;43.614;1.576;2022-08-21T12:32:55;0.63;;;0.60;;
67904;SDS011;54709;43.614;1.576;2022-08-21T12:35:35;0.50;;;0.50;;
67904;SDS011;54709;43.614;1.576;2022-08-21T12:38:39;1.13;;;0.60;;
67904;SDS011;54709;43.614;1.576;2022-08-21T12:41:01;0.50;;;0.50;;
67904;SDS011;54709;43.614;1.576;2022-08-21T12:43:33;0.60;;;0.60;;
67904;SDS011;54709;43.614;1.576;2022-08-21T12:46:01;1.00;;;0.60;;
67904;SDS011;54709;43.614;1.576;2022-08-21T12:48:31;1.58;;;0.47;;
67904;SDS011;54709;43.614;1.576;2022-08-21T12:53:56;3.30;;;0.40;;
67904;SDS011;54709;43.614;1.576;2022-08-21T12:56:24;0.43;;;0.40;;
67904;SDS011;54709;43.614;1.576;2022-08-21T12:59:00;0.40;;;0.40;;
67904;SDS011;54709;43.614;1.576;2022-08-21T13:01:30;0.55;;;0.55;;
67904;SDS011;54709;43.614;1.576;2022-08-21T13:03:58;1.95;;;0.60;;
67904;SDS011;54709;43.614;1.576;2022-08-21T13:06:42;0.63;;;0.47;;
67904;SDS011;54709;43.614;1.576;2022-08-21T13:09:14;1.95;;;0.50;;
67904;SDS011;54709;43.614;1.576;2022-08-21T13:11:44;0.47;;;0.47;;
67904;SDS011;54709;43.614;1.576;2022-08-21T13:14:18;1.55;;;0.43;;
67904;SDS011;54709;43.614;1.576;2022-08-21T13:16:52;2.13;;;0.47;;
67904;SDS011;54709;43.614;1.576;2022-08-21T13:19:24;1.33;;;0.40;;
67904;SDS011;54709;43.614;1.576;2022-08-21T13:21:51;0.40;;;0.40;;
67904;SDS011;54709;43.614;1.576;2022-08-21T13:26:51;0.55;;;0.50;;
67904;SDS011;54709;43.614;1.576;2022-08-21T13:29:21;0.57;;;0.57;;
67904;SDS011;54709;43.614;1.576;2022-08-21T13:31:49;0.40;;;0.40;;
67904;SDS011;54709;43.614;1.576;2022-08-21T13:34:18;0.40;;;0.40;;
67904;SDS011;54709;43.614;1.576;2022-08-21T13:36:46;0.50;;;0.50;;
67904;SDS011;54709;43.614;1.576;2022-08-21T13:39:18;0.30;;;0.30;;
67904;SDS011;54709;43.614;1.576;2022-08-21T13:41:44;0.50;;;0.50;;
67904;SDS011;54709;43.614;1.576;2022-08-21T13:44:18;0.93;;;0.80;;
67904;SDS011;54709;43.614;1.576;2022-08-21T13:46:51;0.93;;;0.57;;
67904;SDS011;54709;43.614;1.576;2022-08-21T13:49:18;0.65;;;0.50;;
67904;SDS011;54709;43.614;1.576;2022-08-21T13:51:44;0.50;;;0.50;;
67904;SDS011;54709;43.614;1.576;2022-08-21T13:54:22;0.50;;;0.50;;
67904;SDS011;54709;43.614;1.576;2022-08-21T13:56:48;1.42;;;0.60;;
67904;SDS011;54709;43.614;1.576;2022-08-21T13:59:25;2.08;;;0.50;;
67904;SDS011;54709;43.614;1.576;2022-08-21T14:01:58;1.50;;;0.50;;
67904;SDS011;54709;43.614;1.576;2022-08-21T14:04:35;0.50;;;0.50;;
67904;SDS011;54709;43.614;1.576;2022-08-21T14:07:14;1.30;;;0.50;;
67904;SDS011;54709;43.614;1.576;2022-08-21T14:09:45;0.65;;;0.60;;
67904;SDS011;54709;43.614;1.576;2022-08-21T14:12:16;1.90;;;0.50;;
67904;SDS011;54709;43.614;1.576;2022-08-21T14:14:43;1.27;;;0.50;;
67904;SDS011;54709;43.614;1.576;2022-08-21T14:17:11;1.60;;;0.50;;
67904;SDS011;54709;43.614;1.576;2022-08-21T14:19:40;1.35;;;0.52;;
67904;SDS011;54709;43.614;1.576;2022-08-21T14:24:48;1.05;;;0.70;;
67904;SDS011;54709;43.614;1.576;2022-08-21T14:27:15;0.85;;;0.50;;
67904;SDS011;54709;43.614;1.576;2022-08-21T14:29:42;0.70;;;0.63;;
67904;SDS011;54709;43.614;1.576;2022-08-21T14:32:15;0.70;;;0.55;;
67904;SDS011;54709;43.614;1.576;2022-08-21T14:34:47;0.68;;;0.40;;
67904;SDS011;54709;43.614;1.576;2022-08-21T14:37:12;3.22;;;0.65;;
67904;SDS011;54709;43.614;1.576;2022-08-21T14:39:38;0.60;;;0.50;;
67904;SDS011;54709;43.614;1.576;2022-08-21T14:42:03;1.38;;;0.60;;
67904;SDS011;54709;43.614;1.576;2022-08-21T14:44:29;2.10;;;0.50;;
67904;SDS011;54709;43.614;1.576;2022-08-21T14:46:54;7.25;;;1.23;;
67904;SDS011;54709;43.614;1.576;2022-08-21T14:49:20;1.30;;;0.70;;
67904;SDS011;54709;43.614;1.576;2022-08-21T14:51:45;1.00;;;0.60;;
67904;SDS011;54709;43.614;1.576;2022-08-21T14:54:11;0.95;;;0.70;;
67904;SDS011;54709;43.614;1.576;2022-08-21T14:56:36;0.90;;;0.80;;
67904;SDS011;54709;43.614;1.576;2022-08-21T14:59:03;0.70;;;0.70;;
67904;SDS011;54709;43.614;1.576;2022-08-21T15:01:30;1.95;;;0.60;;
67904;SDS011;54709;43.614;1.576;2022-08-21T15:03:57;2.08;;;0.50;;
67904;SDS011;54709;43.614;1.576;2022-08-21T15:06:22;0.90;;;0.80;;
67904;SDS011;54709;43.614;1.576;2022-08-21T15:08:48;1.70;;;0.82;;
67904;SDS011;54709;43.614;1.576;2022-08-21T15:11:16;0.77;;;0.70;;
67904;SDS011;54709;43.614;1.576;2022-08-21T15:13:43;1.83;;;0.68;;
67904;SDS011;54709;43.614;1.576;2022-08-21T15:16:09;0.77;;;0.70;;
67904;SDS011;54709;43.614;1.576;2022-08-21T15:18:36;0.95;;;0.73;;
67904;SDS011;54709;43.614;1.576;2022-08-21T15:21:01;0.98;;;0.80;;
67904;SDS011;54709;43.614;1.576;2022-08-21T15:23:26;1.02;;;0.80;;
67904;SDS011;54709;43.614;1.576;2022-08-21T15:25:52;1.05;;;0.60;;
67904;SDS011;54709;43.614;1.576;2022-08-21T15:28:18;0.65;;;0.65;;
67904;SDS011;54709;43.614;1.576;2022-08-21T15:30:45;1.38;;;0.73;;
67904;SDS011;54709;43.614;1.576;2022-08-21T15:33:11;0.90;;;0.90;;
67904;SDS011;54709;43.614;1.576;2022-08-21T15:35:37;1.65;;;0.68;;
67904;SDS011;54709;43.614;1.576;2022-08-21T15:38:02;1.13;;;0.80;;
67904;SDS011;54709;43.614;1.576;2022-08-21T15:40:28;1.95;;;0.88;;
67904;SDS011;54709;43.614;1.576;2022-08-21T15:42:58;0.70;;;0.65;;
67904;SDS011;54709;43.614;1.576;2022-08-21T15:45:25;1.17;;;0.77;;
67904;SDS011;54709;43.614;1.576;2022-08-21T15:47:51;3.03;;;0.77;;
67904;SDS011;54709;43.614;1.576;2022-08-21T15:50:17;0.77;;;0.77;;
67904;SDS011;54709;43.614;1.576;2022-08-21T15:52:43;1.75;;;0.82;;
67904;SDS011;54709;43.614;1.576;2022-08-21T15:55:09;2.47;;;1.02;;
67904;SDS011;54709;43.614;1.576;2022-08-21T15:57:35;1.13;;;0.80;;
67904;SDS011;54709;43.614;1.576;2022-08-21T16:02:58;0.98;;;0.70;;